sensor_id;sensor_type;location;lat;lon;timestamp;temperature;humidity
1778;DHT22;71547;50.146;8.174;2024-02-04T00:00:31;8.80;99.90
1778;DHT22;71547;50.146;8.174;2024-02-04T00:03:00;8.80;99.90
1778;DHT22;71547;50.146;8.174;2024-02-04T00:05:27;8.80;99.90
1778;DHT22;71547;50.146;8.174;2024-02-04T00:07:55;8.80;99.90
1778;DHT22;71547;50.146;8.174;2024-02-04T00:10:22;8.80;99.90
1778;DHT22;71547;50.146;8.174;2024-02-04T00:12:49;8.80;99.90
1778;DHT22;71547;50.146;8.174;2024-02-04T00:15:17;8.80;99.90
1778;DHT22;71547;50.146;8.174;2024-02-04T00:17:44;8.80;99.90
1778;DHT22;71547;50.146;8.174;2024-02-04T00:20:13;8.80;99.90
1778;DHT22;71547;50.146;8.174;2024-02-04T00:22:40;8.80;99.90
1778;DHT22;71547;50.146;8.174;2024-02-04T00:25:07;8.80;99.90
1778;DHT22;71547;50.146;8.174;2024-02-04T00:27:38;8.70;99.90
1778;DHT22;71547;50.146;8.174;2024-02-04T00:30:07;8.80;99.90
1778;DHT22;71547;50.146;8.174;2024-02-04T00:32:34;8.80;99.90
1778;DHT22;71547;50.146;8.174;2024-02-04T00:35:02;8.80;99.90
1778;DHT22;71547;50.146;8.174;2024-02-04T00:37:31;8.80;99.90
1778;DHT22;71547;50.146;8.174;2024-02-04T00:39:58;8.90;99.90
1778;DHT22;71547;50.146;8.174;2024-02-04T00:42:25;8.80;99.90
1778;DHT22;71547;50.146;8.174;2024-02-04T00:44:59;8.80;99.90
1778;DHT22;71547;50.146;8.174;2024-02-04T00:47:30;8.80;99.90
1778;DHT22;71547;50.146;8.174;2024-02-04T00:50:21;8.80;99.90
1778;DHT22;71547;50.146;8.174;2024-02-04T00:53:27;8.80;99.90
1778;DHT22;71547;50.146;8.174;2024-02-04T00:56:20;8.80;99.90
1778;DHT22;71547;50.146;8.174;2024-02-04T00:59:01;8.80;99.90
1778;DHT22;71547;50.146;8.174;2024-02-04T01:01:47;8.80;99.90
1778;DHT22;71547;50.146;8.174;2024-02-04T01:04:38;8.80;99.90
1778;DHT22;71547;50.146;8.174;2024-02-04T01:07:09;8.80;99.90
1778;DHT22;71547;50.146;8.174;2024-02-04T01:09:48;8.80;99.90
1778;DHT22;71547;50.146;8.174;2024-02-04T01:12:21;8.70;99.90
1778;DHT22;71547;50.146;8.174;2024-02-04T01:15:02;8.80;99.90
1778;DHT22;71547;50.146;8.174;2024-02-04T01:18:08;8.70;99.90
1778;DHT22;71547;50.146;8.174;2024-02-04T01:23:40;8.80;99.90
1778;DHT22;71547;50.146;8.174;2024-02-04T01:26:21;8.80;99.90
1778;DHT22;71547;50.146;8.174;2024-02-04T01:28:58;8.70;99.90
1778;DHT22;71547;50.146;8.174;2024-02-04T01:31:35;8.70;99.90
1778;DHT22;71547;50.146;8.174;2024-02-04T01:34:21;8.70;99.90
1778;DHT22;71547;50.146;8.174;2024-02-04T01:37:00;8.70;99.90
1778;DHT22;71547;50.146;8.174;2024-02-04T01:39:40;8.70;99.90
1778;DHT22;71547;50.146;8.174;2024-02-04T01:42:18;8.60;99.90
1778;DHT22;71547;50.146;8.174;2024-02-04T01:45:16;8.60;99.90
1778;DHT22;71547;50.146;8.174;2024-02-04T01:47:53;8.60;99.90
1778;DHT22;71547;50.146;8.174;2024-02-04T01:50:42;8.60;99.90
1778;DHT22;71547;50.146;8.174;2024-02-04T01:53:23;8.60;99.90
1778;DHT22;71547;50.146;8.174;2024-02-04T01:55:58;8.50;99.90
1778;DHT22;71547;50.146;8.174;2024-02-04T01:58:39;8.50;99.90
1778;DHT22;71547;50.146;8.174;2024-02-04T02:01:17;8.50;99.90
1778;DHT22;71547;50.146;8.174;2024-02-04T02:03:52;8.50;99.90
1778;DHT22;71547;50.146;8.174;2024-02-04T02:06:39;8.40;99.90
1778;DHT22;71547;50.146;8.174;2024-02-04T02:09:38;8.40;99.90
1778;DHT22;71547;50.146;8.174;2024-02-04T02:12:48;8.40;99.90
1778;DHT22;71547;50.146;8.174;2024-02-04T02:15:15;8.40;99.90
1778;DHT22;71547;50.146;8.174;2024-02-04T02:17:55;8.30;99.90
1778;DHT22;71547;50.146;8.174;2024-02-04T02:20:48;8.30;99.90
1778;DHT22;71547;50.146;8.174;2024-02-04T02:23:31;8.40;99.90
1778;DHT22;71547;50.146;8.174;2024-02-04T02:26:07;8.30;99.90
1778;DHT22;71547;50.146;8.174;2024-02-04T02:28:46;8.30;99.90
1778;DHT22;71547;50.146;8.174;2024-02-04T02:31:23;8.30;99.90
1778;DHT22;71547;50.146;8.174;2024-02-04T02:34:08;8.30;99.90
1778;DHT22;71547;50.146;8.174;2024-02-04T02:37:13;8.30;99.90
1778;DHT22;71547;50.146;8.174;2024-02-04T02:40:09;8.30;99.90
1778;DHT22;71547;50.146;8.174;2024-02-04T02:42:49;8.30;99.90
1778;DHT22;71547;50.146;8.174;2024-02-04T02:45:24;8.30;99.90
1778;DHT22;71547;50.146;8.174;2024-02-04T02:48:05;8.20;99.90
1778;DHT22;71547;50.146;8.174;2024-02-04T02:50:40;8.30;99.90
1778;DHT22;71547;50.146;8.174;2024-02-04T02:53:10;8.30;99.90
1778;DHT22;71547;50.146;8.174;2024-02-04T02:55:39;8.30;99.90
1778;DHT22;71547;50.146;8.174;2024-02-04T02:58:19;8.30;99.90
1778;DHT22;71547;50.146;8.174;2024-02-04T03:00:49;8.30;99.90
1778;DHT22;71547;50.146;8.174;2024-02-04T03:03:22;8.30;99.90
1778;DHT22;71547;50.146;8.174;2024-02-04T03:05:57;8.30;99.90
1778;DHT22;71547;50.146;8.174;2024-02-04T03:08:35;8.30;99.90
1778;DHT22;71547;50.146;8.174;2024-02-04T03:11:14;8.30;99.90
1778;DHT22;71547;50.146;8.174;2024-02-04T03:13:44;8.30;99.90
1778;DHT22;71547;50.146;8.174;2024-02-04T03:16:18;8.30;99.90
1778;DHT22;71547;50.146;8.174;2024-02-04T03:18:52;8.30;99.90
1778;DHT22;71547;50.146;8.174;2024-02-04T03:21:25;8.40;99.90
1778;DHT22;71547;50.146;8.174;2024-02-04T03:24:05;8.30;99.90
1778;DHT22;71547;50.146;8.174;2024-02-04T03:26:34;8.30;99.90
1778;DHT22;71547;50.146;8.174;2024-02-04T03:29:12;8.30;99.90
1778;DHT22;71547;50.146;8.174;2024-02-04T03:31:39;8.30;99.90
1778;DHT22;71547;50.146;8.174;2024-02-04T03:34:07;8.30;99.90
1778;DHT22;71547;50.146;8.174;2024-02-04T03:36:37;8.30;99.90
1778;DHT22;71547;50.146;8.174;2024-02-04T03:39:09;8.30;99.90
1778;DHT22;71547;50.146;8.174;2024-02-04T03:41:38;8.30;99.90
1778;DHT22;71547;50.146;8.174;2024-02-04T03:44:12;8.30;99.90
1778;DHT22;71547;50.146;8.174;2024-02-04T03:46:42;8.30;99.90
1778;DHT22;71547;50.146;8.174;2024-02-04T03:49:15;8.30;99.90
1778;DHT22;71547;50.146;8.174;2024-02-04T03:51:47;8.30;99.90
1778;DHT22;71547;50.146;8.174;2024-02-04T03:54:21;8.30;99.90
1778;DHT22;71547;50.146;8.174;2024-02-04T03:56:49;8.30;99.90
1778;DHT22;71547;50.146;8.174;2024-02-04T03:59:25;8.30;99.90
1778;DHT22;71547;50.146;8.174;2024-02-04T04:01:55;8.30;99.90
1778;DHT22;71547;50.146;8.174;2024-02-04T04:04:29;8.30;99.90
1778;DHT22;71547;50.146;8.174;2024-02-04T04:06:59;8.30;99.90
1778;DHT22;71547;50.146;8.174;2024-02-04T04:09:30;8.30;99.90
1778;DHT22;71547;50.146;8.174;2024-02-04T04:12:03;8.30;99.90
1778;DHT22;71547;50.146;8.174;2024-02-04T04:14:35;8.30;99.90
1778;DHT22;71547;50.146;8.174;2024-02-04T04:17:02;8.30;99.90
1778;DHT22;71547;50.146;8.174;2024-02-04T04:19:29;8.30;99.90
1778;DHT22;71547;50.146;8.174;2024-02-04T04:22:04;8.30;99.90
1778;DHT22;71547;50.146;8.174;2024-02-04T04:24:38;8.40;99.90
1778;DHT22;71547;50.146;8.174;2024-02-04T04:27:08;8.40;99.90
1778;DHT22;71547;50.146;8.174;2024-02-04T04:29:38;8.40;99.90
1778;DHT22;71547;50.146;8.174;2024-02-04T04:32:06;8.40;99.90
1778;DHT22;71547;50.146;8.174;2024-02-04T04:34:40;8.40;99.90
1778;DHT22;71547;50.146;8.174;2024-02-04T04:37:17;8.40;99.90
1778;DHT22;71547;50.146;8.174;2024-02-04T04:39:44;8.40;99.90
1778;DHT22;71547;50.146;8.174;2024-02-04T04:42:11;8.40;99.90
1778;DHT22;71547;50.146;8.174;2024-02-04T04:44:42;8.40;99.90
1778;DHT22;71547;50.146;8.174;2024-02-04T04:47:15;8.40;99.90
1778;DHT22;71547;50.146;8.174;2024-02-04T04:49:42;8.40;99.90
1778;DHT22;71547;50.146;8.174;2024-02-04T04:52:14;8.40;99.90
1778;DHT22;71547;50.146;8.174;2024-02-04T04:54:45;8.40;99.90
1778;DHT22;71547;50.146;8.174;2024-02-04T04:57:19;8.40;99.90
1778;DHT22;71547;50.146;8.174;2024-02-04T04:59:52;8.40;99.90
1778;DHT22;71547;50.146;8.174;2024-02-04T05:02:23;8.40;99.90
1778;DHT22;71547;50.146;8.174;2024-02-04T05:04:50;8.50;99.90
1778;DHT22;71547;50.146;8.174;2024-02-04T05:07:20;8.50;99.90
1778;DHT22;71547;50.146;8.174;2024-02-04T05:09:52;8.50;99.90
1778;DHT22;71547;50.146;8.174;2024-02-04T05:12:25;8.50;99.90
1778;DHT22;71547;50.146;8.174;2024-02-04T05:14:56;8.50;99.90
1778;DHT22;71547;50.146;8.174;2024-02-04T05:17:26;8.50;99.90
1778;DHT22;71547;50.146;8.174;2024-02-04T05:19:55;8.50;99.90
1778;DHT22;71547;50.146;8.174;2024-02-04T05:22:23;8.50;99.90
1778;DHT22;71547;50.146;8.174;2024-02-04T05:24:54;8.50;99.90
1778;DHT22;71547;50.146;8.174;2024-02-04T05:27:31;8.50;99.90
1778;DHT22;71547;50.146;8.174;2024-02-04T05:30:04;8.50;99.90
1778;DHT22;71547;50.146;8.174;2024-02-04T05:32:35;8.50;99.90
1778;DHT22;71547;50.146;8.174;2024-02-04T05:35:07;8.50;99.90
1778;DHT22;71547;50.146;8.174;2024-02-04T05:37:36;8.50;99.90
1778;DHT22;71547;50.146;8.174;2024-02-04T05:40:06;8.50;99.90
1778;DHT22;71547;50.146;8.174;2024-02-04T05:42:44;8.50;99.90
1778;DHT22;71547;50.146;8.174;2024-02-04T05:45:15;8.50;99.90
1778;DHT22;71547;50.146;8.174;2024-02-04T05:47:42;8.50;99.90
1778;DHT22;71547;50.146;8.174;2024-02-04T05:50:16;8.50;99.90
1778;DHT22;71547;50.146;8.174;2024-02-04T05:52:46;8.50;99.90
1778;DHT22;71547;50.146;8.174;2024-02-04T05:55:15;8.50;99.90
1778;DHT22;71547;50.146;8.174;2024-02-04T05:57:44;8.50;99.90
1778;DHT22;71547;50.146;8.174;2024-02-04T06:00:16;8.50;99.90
1778;DHT22;71547;50.146;8.174;2024-02-04T06:02:58;8.40;99.90
1778;DHT22;71547;50.146;8.174;2024-02-04T06:05:25;8.50;99.90
1778;DHT22;71547;50.146;8.174;2024-02-04T06:07:52;8.40;99.90
1778;DHT22;71547;50.146;8.174;2024-02-04T06:10:24;8.50;99.90
1778;DHT22;71547;50.146;8.174;2024-02-04T06:12:58;8.50;99.90
1778;DHT22;71547;50.146;8.174;2024-02-04T06:15:34;8.50;99.90
1778;DHT22;71547;50.146;8.174;2024-02-04T06:18:12;8.60;99.90
1778;DHT22;71547;50.146;8.174;2024-02-04T06:20:41;8.60;99.90
1778;DHT22;71547;50.146;8.174;2024-02-04T06:23:09;8.60;99.90
1778;DHT22;71547;50.146;8.174;2024-02-04T06:25:38;8.60;99.90
1778;DHT22;71547;50.146;8.174;2024-02-04T06:28:12;8.60;99.90
1778;DHT22;71547;50.146;8.174;2024-02-04T06:30:42;8.60;99.90
1778;DHT22;71547;50.146;8.174;2024-02-04T06:33:11;8.60;99.90
1778;DHT22;71547;50.146;8.174;2024-02-04T06:35:55;8.60;99.90
1778;DHT22;71547;50.146;8.174;2024-02-04T06:38:22;8.60;99.90
1778;DHT22;71547;50.146;8.174;2024-02-04T06:40:55;8.60;99.90
1778;DHT22;71547;50.146;8.174;2024-02-04T06:43:29;8.60;99.90
1778;DHT22;71547;50.146;8.174;2024-02-04T06:46:03;8.60;99.90
1778;DHT22;71547;50.146;8.174;2024-02-04T06:48:35;8.50;99.90
1778;DHT22;71547;50.146;8.174;2024-02-04T06:51:04;8.50;99.90
1778;DHT22;71547;50.146;8.174;2024-02-04T06:53:38;8.50;99.90
1778;DHT22;71547;50.146;8.174;2024-02-04T06:56:08;8.50;99.90
1778;DHT22;71547;50.146;8.174;2024-02-04T06:58:37;8.50;99.90
1778;DHT22;71547;50.146;8.174;2024-02-04T07:01:06;8.50;99.90
1778;DHT22;71547;50.146;8.174;2024-02-04T07:03:36;8.50;99.90
1778;DHT22;71547;50.146;8.174;2024-02-04T07:06:07;8.50;99.90
1778;DHT22;71547;50.146;8.174;2024-02-04T07:08:34;8.50;99.90
1778;DHT22;71547;50.146;8.174;2024-02-04T07:11:04;8.50;99.90
1778;DHT22;71547;50.146;8.174;2024-02-04T07:14:01;8.50;99.90
1778;DHT22;71547;50.146;8.174;2024-02-04T07:16:42;8.50;99.90
1778;DHT22;71547;50.146;8.174;2024-02-04T07:19:19;8.50;99.90
1778;DHT22;71547;50.146;8.174;2024-02-04T07:21:55;8.50;99.90
1778;DHT22;71547;50.146;8.174;2024-02-04T07:24:40;8.60;99.90
1778;DHT22;71547;50.146;8.174;2024-02-04T07:27:25;8.60;99.90
1778;DHT22;71547;50.146;8.174;2024-02-04T07:30:04;8.60;99.90
1778;DHT22;71547;50.146;8.174;2024-02-04T07:32:36;8.60;99.90
1778;DHT22;71547;50.146;8.174;2024-02-04T07:35:09;8.60;99.90
1778;DHT22;71547;50.146;8.174;2024-02-04T07:37:42;8.60;99.90
1778;DHT22;71547;50.146;8.174;2024-02-04T07:40:12;8.60;99.90
1778;DHT22;71547;50.146;8.174;2024-02-04T07:42:42;8.60;99.90
1778;DHT22;71547;50.146;8.174;2024-02-04T07:45:17;8.60;99.90
1778;DHT22;71547;50.146;8.174;2024-02-04T07:47:54;8.60;99.90
1778;DHT22;71547;50.146;8.174;2024-02-04T07:50:26;8.70;99.90
1778;DHT22;71547;50.146;8.174;2024-02-04T07:52:59;8.70;99.90
1778;DHT22;71547;50.146;8.174;2024-02-04T07:55:30;8.70;99.90
1778;DHT22;71547;50.146;8.174;2024-02-04T07:57:57;8.80;99.90
1778;DHT22;71547;50.146;8.174;2024-02-04T08:00:26;8.70;99.90
1778;DHT22;71547;50.146;8.174;2024-02-04T08:03:01;8.80;99.90
1778;DHT22;71547;50.146;8.174;2024-02-04T08:05:33;8.70;99.90
1778;DHT22;71547;50.146;8.174;2024-02-04T08:08:11;8.80;99.90
1778;DHT22;71547;50.146;8.174;2024-02-04T08:10:38;8.80;99.90
1778;DHT22;71547;50.146;8.174;2024-02-04T08:13:08;8.80;99.90
1778;DHT22;71547;50.146;8.174;2024-02-04T08:15:37;8.80;99.90
1778;DHT22;71547;50.146;8.174;2024-02-04T08:18:06;8.80;99.90
1778;DHT22;71547;50.146;8.174;2024-02-04T08:20:34;8.90;99.90
1778;DHT22;71547;50.146;8.174;2024-02-04T08:23:05;8.80;99.90
1778;DHT22;71547;50.146;8.174;2024-02-04T08:25:38;8.80;99.90
1778;DHT22;71547;50.146;8.174;2024-02-04T08:28:08;8.80;99.90
1778;DHT22;71547;50.146;8.174;2024-02-04T08:30:39;8.80;99.90
1778;DHT22;71547;50.146;8.174;2024-02-04T08:33:10;8.90;99.90
1778;DHT22;71547;50.146;8.174;2024-02-04T08:35:42;8.90;99.90
1778;DHT22;71547;50.146;8.174;2024-02-04T08:38:12;8.90;99.90
1778;DHT22;71547;50.146;8.174;2024-02-04T08:40:43;9.00;99.90
1778;DHT22;71547;50.146;8.174;2024-02-04T08:43:16;9.00;99.90
1778;DHT22;71547;50.146;8.174;2024-02-04T08:45:46;9.00;99.90
1778;DHT22;71547;50.146;8.174;2024-02-04T08:48:23;9.10;99.90
1778;DHT22;71547;50.146;8.174;2024-02-04T08:50:53;9.10;99.90
1778;DHT22;71547;50.146;8.174;2024-02-04T08:53:24;9.10;99.90
1778;DHT22;71547;50.146;8.174;2024-02-04T08:55:56;9.20;99.90
1778;DHT22;71547;50.146;8.174;2024-02-04T08:58:29;9.20;99.90
1778;DHT22;71547;50.146;8.174;2024-02-04T09:00:57;9.30;99.90
1778;DHT22;71547;50.146;8.174;2024-02-04T09:03:28;9.30;99.90
1778;DHT22;71547;50.146;8.174;2024-02-04T09:05:56;9.20;99.90
1778;DHT22;71547;50.146;8.174;2024-02-04T09:08:23;9.20;99.90
1778;DHT22;71547;50.146;8.174;2024-02-04T09:10:50;9.30;99.90
1778;DHT22;71547;50.146;8.174;2024-02-04T09:13:17;9.30;99.90
1778;DHT22;71547;50.146;8.174;2024-02-04T09:15:45;9.30;99.90
1778;DHT22;71547;50.146;8.174;2024-02-04T09:18:12;9.40;99.90
1778;DHT22;71547;50.146;8.174;2024-02-04T09:20:41;9.40;99.90
1778;DHT22;71547;50.146;8.174;2024-02-04T09:23:08;9.50;99.90
1778;DHT22;71547;50.146;8.174;2024-02-04T09:25:36;9.50;99.90
1778;DHT22;71547;50.146;8.174;2024-02-04T09:28:03;9.60;99.90
1778;DHT22;71547;50.146;8.174;2024-02-04T09:30:31;9.60;99.90
1778;DHT22;71547;50.146;8.174;2024-02-04T09:32:58;9.60;99.90
1778;DHT22;71547;50.146;8.174;2024-02-04T09:35:26;9.70;99.90
1778;DHT22;71547;50.146;8.174;2024-02-04T09:37:55;9.70;99.90
1778;DHT22;71547;50.146;8.174;2024-02-04T09:40:24;9.70;99.90
1778;DHT22;71547;50.146;8.174;2024-02-04T09:42:51;9.70;99.90
1778;DHT22;71547;50.146;8.174;2024-02-04T09:45:19;9.80;99.90
1778;DHT22;71547;50.146;8.174;2024-02-04T09:47:49;9.80;99.90
1778;DHT22;71547;50.146;8.174;2024-02-04T09:50:17;9.80;99.90
1778;DHT22;71547;50.146;8.174;2024-02-04T09:52:49;9.90;99.90
1778;DHT22;71547;50.146;8.174;2024-02-04T09:55:20;9.90;99.90
1778;DHT22;71547;50.146;8.174;2024-02-04T09:57:51;9.90;99.90
1778;DHT22;71547;50.146;8.174;2024-02-04T10:00:19;9.90;99.90
1778;DHT22;71547;50.146;8.174;2024-02-04T10:02:47;9.80;99.90
1778;DHT22;71547;50.146;8.174;2024-02-04T10:05:15;9.80;99.90
1778;DHT22;71547;50.146;8.174;2024-02-04T10:07:44;9.80;99.90
1778;DHT22;71547;50.146;8.174;2024-02-04T10:10:12;9.80;99.90
1778;DHT22;71547;50.146;8.174;2024-02-04T10:12:41;9.90;99.90
1778;DHT22;71547;50.146;8.174;2024-02-04T10:15:10;9.90;99.90
1778;DHT22;71547;50.146;8.174;2024-02-04T10:17:44;9.90;99.90
1778;DHT22;71547;50.146;8.174;2024-02-04T10:20:15;9.90;99.90
1778;DHT22;71547;50.146;8.174;2024-02-04T10:22:46;9.90;99.90
1778;DHT22;71547;50.146;8.174;2024-02-04T10:25:14;10.00;99.90
1778;DHT22;71547;50.146;8.174;2024-02-04T10:27:46;10.00;99.90
1778;DHT22;71547;50.146;8.174;2024-02-04T10:30:14;9.90;99.90
1778;DHT22;71547;50.146;8.174;2024-02-04T10:32:42;10.00;99.90
1778;DHT22;71547;50.146;8.174;2024-02-04T10:35:09;10.00;99.90
1778;DHT22;71547;50.146;8.174;2024-02-04T10:37:39;9.80;99.90
1778;DHT22;71547;50.146;8.174;2024-02-04T10:40:07;9.90;99.90
1778;DHT22;71547;50.146;8.174;2024-02-04T10:42:35;9.90;99.90
1778;DHT22;71547;50.146;8.174;2024-02-04T10:45:09;9.90;99.90
1778;DHT22;71547;50.146;8.174;2024-02-04T10:47:38;10.00;99.90
1778;DHT22;71547;50.146;8.174;2024-02-04T10:50:07;10.10;99.90
1778;DHT22;71547;50.146;8.174;2024-02-04T10:52:37;10.10;99.90
1778;DHT22;71547;50.146;8.174;2024-02-04T10:55:09;10.10;99.90
1778;DHT22;71547;50.146;8.174;2024-02-04T10:57:38;10.00;99.90
1778;DHT22;71547;50.146;8.174;2024-02-04T11:00:09;9.90;99.90
1778;DHT22;71547;50.146;8.174;2024-02-04T11:02:40;9.90;99.90
1778;DHT22;71547;50.146;8.174;2024-02-04T11:05:13;9.80;99.90
1778;DHT22;71547;50.146;8.174;2024-02-04T11:07:41;9.80;99.90
1778;DHT22;71547;50.146;8.174;2024-02-04T11:10:10;9.90;99.90
1778;DHT22;71547;50.146;8.174;2024-02-04T11:12:40;9.90;99.90
1778;DHT22;71547;50.146;8.174;2024-02-04T11:15:12;9.90;99.90
1778;DHT22;71547;50.146;8.174;2024-02-04T11:18:02;9.90;99.90
1778;DHT22;71547;50.146;8.174;2024-02-04T11:20:58;9.90;99.90
1778;DHT22;71547;50.146;8.174;2024-02-04T11:23:41;9.90;99.90
1778;DHT22;71547;50.146;8.174;2024-02-04T11:26:15;10.00;99.90
1778;DHT22;71547;50.146;8.174;2024-02-04T11:28:45;10.00;99.90
1778;DHT22;71547;50.146;8.174;2024-02-04T11:31:17;10.10;99.90
1778;DHT22;71547;50.146;8.174;2024-02-04T11:33:45;10.00;99.90
1778;DHT22;71547;50.146;8.174;2024-02-04T11:36:14;10.10;99.90
1778;DHT22;71547;50.146;8.174;2024-02-04T11:38:48;10.10;99.90
1778;DHT22;71547;50.146;8.174;2024-02-04T11:41:22;10.10;99.90
1778;DHT22;71547;50.146;8.174;2024-02-04T11:43:52;10.10;99.90
1778;DHT22;71547;50.146;8.174;2024-02-04T11:46:30;10.00;99.90
1778;DHT22;71547;50.146;8.174;2024-02-04T11:49:00;10.00;99.90
1778;DHT22;71547;50.146;8.174;2024-02-04T11:51:28;10.00;99.90
1778;DHT22;71547;50.146;8.174;2024-02-04T11:53:56;10.00;99.90
1778;DHT22;71547;50.146;8.174;2024-02-04T11:56:24;10.00;99.90
1778;DHT22;71547;50.146;8.174;2024-02-04T11:58:52;9.90;99.90
1778;DHT22;71547;50.146;8.174;2024-02-04T12:01:21;9.90;99.90
1778;DHT22;71547;50.146;8.174;2024-02-04T12:03:51;9.90;99.90
1778;DHT22;71547;50.146;8.174;2024-02-04T12:06:20;10.00;99.90
1778;DHT22;71547;50.146;8.174;2024-02-04T12:08:47;10.00;99.90
1778;DHT22;71547;50.146;8.174;2024-02-04T12:11:15;10.00;99.90
1778;DHT22;71547;50.146;8.174;2024-02-04T12:13:43;10.00;99.90
1778;DHT22;71547;50.146;8.174;2024-02-04T12:16:10;10.10;99.90
1778;DHT22;71547;50.146;8.174;2024-02-04T12:18:47;10.10;99.90
1778;DHT22;71547;50.146;8.174;2024-02-04T12:21:16;10.00;99.90
1778;DHT22;71547;50.146;8.174;2024-02-04T12:23:43;10.10;99.90
1778;DHT22;71547;50.146;8.174;2024-02-04T12:26:12;10.00;99.90
1778;DHT22;71547;50.146;8.174;2024-02-04T12:28:40;9.90;99.90
1778;DHT22;71547;50.146;8.174;2024-02-04T12:31:16;9.90;99.90
1778;DHT22;71547;50.146;8.174;2024-02-04T12:33:52;9.90;99.90
1778;DHT22;71547;50.146;8.174;2024-02-04T12:36:22;9.90;99.90
1778;DHT22;71547;50.146;8.174;2024-02-04T12:38:53;10.00;99.90
1778;DHT22;71547;50.146;8.174;2024-02-04T12:41:22;10.00;99.90
1778;DHT22;71547;50.146;8.174;2024-02-04T12:43:50;10.00;99.90
1778;DHT22;71547;50.146;8.174;2024-02-04T12:46:19;10.00;99.90
1778;DHT22;71547;50.146;8.174;2024-02-04T12:48:51;9.90;99.90
1778;DHT22;71547;50.146;8.174;2024-02-04T12:51:28;10.00;99.90
1778;DHT22;71547;50.146;8.174;2024-02-04T12:54:05;9.90;99.90
1778;DHT22;71547;50.146;8.174;2024-02-04T12:56:40;9.90;99.90
1778;DHT22;71547;50.146;8.174;2024-02-04T12:59:09;10.00;99.90
1778;DHT22;71547;50.146;8.174;2024-02-04T13:01:37;10.00;99.90
1778;DHT22;71547;50.146;8.174;2024-02-04T13:04:06;10.00;99.90
1778;DHT22;71547;50.146;8.174;2024-02-04T13:06:39;10.00;99.90
1778;DHT22;71547;50.146;8.174;2024-02-04T13:09:07;10.00;99.90
1778;DHT22;71547;50.146;8.174;2024-02-04T13:11:35;10.00;99.90
1778;DHT22;71547;50.146;8.174;2024-02-04T13:14:03;10.00;99.90
1778;DHT22;71547;50.146;8.174;2024-02-04T13:16:30;10.00;99.90
1778;DHT22;71547;50.146;8.174;2024-02-04T13:18:57;9.90;99.90
1778;DHT22;71547;50.146;8.174;2024-02-04T13:21:24;9.90;99.90
1778;DHT22;71547;50.146;8.174;2024-02-04T13:23:53;9.90;99.90
1778;DHT22;71547;50.146;8.174;2024-02-04T13:26:20;9.90;99.90
1778;DHT22;71547;50.146;8.174;2024-02-04T13:28:48;9.90;99.90
1778;DHT22;71547;50.146;8.174;2024-02-04T13:31:15;9.80;99.90
1778;DHT22;71547;50.146;8.174;2024-02-04T13:33:42;9.80;99.90
1778;DHT22;71547;50.146;8.174;2024-02-04T13:36:10;9.80;99.90
1778;DHT22;71547;50.146;8.174;2024-02-04T13:38:37;9.80;99.90
1778;DHT22;71547;50.146;8.174;2024-02-04T13:41:06;9.80;99.90
1778;DHT22;71547;50.146;8.174;2024-02-04T13:43:34;9.80;99.90
1778;DHT22;71547;50.146;8.174;2024-02-04T13:46:01;9.80;99.90
1778;DHT22;71547;50.146;8.174;2024-02-04T13:48:30;9.80;99.90
1778;DHT22;71547;50.146;8.174;2024-02-04T13:50:57;9.80;99.90
1778;DHT22;71547;50.146;8.174;2024-02-04T13:53:25;9.80;99.90
1778;DHT22;71547;50.146;8.174;2024-02-04T13:55:53;9.80;99.90
1778;DHT22;71547;50.146;8.174;2024-02-04T13:58:30;9.70;99.90
1778;DHT22;71547;50.146;8.174;2024-02-04T14:00:57;9.80;99.90
1778;DHT22;71547;50.146;8.174;2024-02-04T14:03:26;9.80;99.90
1778;DHT22;71547;50.146;8.174;2024-02-04T14:05:54;9.80;99.90
1778;DHT22;71547;50.146;8.174;2024-02-04T14:08:22;9.80;99.90
1778;DHT22;71547;50.146;8.174;2024-02-04T14:10:49;9.80;99.90
1778;DHT22;71547;50.146;8.174;2024-02-04T14:13:16;9.80;99.90
1778;DHT22;71547;50.146;8.174;2024-02-04T14:15:45;9.80;99.90
1778;DHT22;71547;50.146;8.174;2024-02-04T14:18:12;9.80;99.90
1778;DHT22;71547;50.146;8.174;2024-02-04T14:20:40;9.90;99.90
1778;DHT22;71547;50.146;8.174;2024-02-04T14:23:07;9.80;99.90
1778;DHT22;71547;50.146;8.174;2024-02-04T14:25:35;9.80;99.90
1778;DHT22;71547;50.146;8.174;2024-02-04T14:28:03;9.90;99.90
1778;DHT22;71547;50.146;8.174;2024-02-04T14:30:31;9.80;99.90
1778;DHT22;71547;50.146;8.174;2024-02-04T14:33:00;9.80;99.90
1778;DHT22;71547;50.146;8.174;2024-02-04T14:35:27;9.80;99.90
1778;DHT22;71547;50.146;8.174;2024-02-04T14:37:54;9.80;99.90
1778;DHT22;71547;50.146;8.174;2024-02-04T14:40:21;9.80;99.90
1778;DHT22;71547;50.146;8.174;2024-02-04T14:42:49;9.80;99.90
1778;DHT22;71547;50.146;8.174;2024-02-04T14:45:16;9.80;99.90
1778;DHT22;71547;50.146;8.174;2024-02-04T14:47:43;9.80;99.90
1778;DHT22;71547;50.146;8.174;2024-02-04T14:50:12;9.70;99.90
1778;DHT22;71547;50.146;8.174;2024-02-04T14:52:40;9.80;99.90
1778;DHT22;71547;50.146;8.174;2024-02-04T14:55:08;9.70;99.90
1778;DHT22;71547;50.146;8.174;2024-02-04T14:57:37;9.70;99.90
1778;DHT22;71547;50.146;8.174;2024-02-04T15:00:05;9.70;99.90
1778;DHT22;71547;50.146;8.174;2024-02-04T15:02:34;9.70;99.90
1778;DHT22;71547;50.146;8.174;2024-02-04T15:05:01;9.80;99.90
1778;DHT22;71547;50.146;8.174;2024-02-04T15:07:30;9.70;99.90
1778;DHT22;71547;50.146;8.174;2024-02-04T15:09:59;9.70;99.90
1778;DHT22;71547;50.146;8.174;2024-02-04T15:12:27;9.80;99.90
1778;DHT22;71547;50.146;8.174;2024-02-04T15:14:56;9.80;99.90
1778;DHT22;71547;50.146;8.174;2024-02-04T15:17:24;9.80;99.90
1778;DHT22;71547;50.146;8.174;2024-02-04T15:19:52;9.80;99.90
1778;DHT22;71547;50.146;8.174;2024-02-04T15:22:21;9.80;99.90
1778;DHT22;71547;50.146;8.174;2024-02-04T15:24:51;9.80;99.90
1778;DHT22;71547;50.146;8.174;2024-02-04T15:27:19;9.80;99.90
1778;DHT22;71547;50.146;8.174;2024-02-04T15:29:48;9.80;99.90
1778;DHT22;71547;50.146;8.174;2024-02-04T15:32:15;9.80;99.90
1778;DHT22;71547;50.146;8.174;2024-02-04T15:34:44;9.80;99.90
1778;DHT22;71547;50.146;8.174;2024-02-04T15:37:11;9.80;99.90
1778;DHT22;71547;50.146;8.174;2024-02-04T15:39:40;9.80;99.90
1778;DHT22;71547;50.146;8.174;2024-02-04T15:42:10;9.70;99.90
1778;DHT22;71547;50.146;8.174;2024-02-04T15:44:37;9.70;99.90
1778;DHT22;71547;50.146;8.174;2024-02-04T15:47:06;9.70;99.90
1778;DHT22;71547;50.146;8.174;2024-02-04T15:49:37;9.60;99.90
1778;DHT22;71547;50.146;8.174;2024-02-04T15:52:06;9.60;99.90
1778;DHT22;71547;50.146;8.174;2024-02-04T15:54:34;9.60;99.90
1778;DHT22;71547;50.146;8.174;2024-02-04T15:57:05;9.50;99.90
1778;DHT22;71547;50.146;8.174;2024-02-04T15:59:42;9.50;99.90
1778;DHT22;71547;50.146;8.174;2024-02-04T16:02:16;9.50;99.90
1778;DHT22;71547;50.146;8.174;2024-02-04T16:04:44;9.40;99.90
1778;DHT22;71547;50.146;8.174;2024-02-04T16:07:18;9.40;99.90
1778;DHT22;71547;50.146;8.174;2024-02-04T16:09:49;9.50;99.90
1778;DHT22;71547;50.146;8.174;2024-02-04T16:12:18;9.40;99.90
1778;DHT22;71547;50.146;8.174;2024-02-04T16:14:51;9.40;99.90
1778;DHT22;71547;50.146;8.174;2024-02-04T16:17:19;9.40;99.90
1778;DHT22;71547;50.146;8.174;2024-02-04T16:19:48;9.40;99.90
1778;DHT22;71547;50.146;8.174;2024-02-04T16:22:19;9.50;99.90
1778;DHT22;71547;50.146;8.174;2024-02-04T16:24:46;9.50;99.90
1778;DHT22;71547;50.146;8.174;2024-02-04T16:27:15;9.60;99.90
1778;DHT22;71547;50.146;8.174;2024-02-04T16:29:43;9.60;99.90
1778;DHT22;71547;50.146;8.174;2024-02-04T16:32:11;9.60;99.90